AIE793 CYVP-CYUL
Flight info
| Callsign | AIE793 |
|---|---|
| Flight time | N/A |
| Altitude | 38000 |
| Route | YVP DCT MT DCT OBRET LFLER7 |
| Aircraft | B738/M-SDE2E3FGHIRWXY/LB1 |
Departure
| Time | 2026-04-11 22:53 |
|---|---|
| Airport | Kuujjuaq Airport (CYVP) |
Arrival
| Time | N/A |
|---|---|
| Airport | Montreal / Pierre Elliott Trudeau International Airport (CYUL) |
| Time | Latitude | Longitude | Altitude | Speed | Heading |
|---|---|---|---|---|---|
| 2026-04-11 22:30 | 58.09914 | -68.41953 | 126 ft | 0 kts | 130° |
| 2026-04-11 22:48 | 58.09924 | -68.41974 | 121 ft | 4 kts | 143° |
| 2026-04-11 22:48 | 58.09946 | -68.41988 | 126 ft | 4 kts | 197° |
| 2026-04-11 22:48 | 58.09962 | -68.41971 | 126 ft | 0 kts | 223° |
| 2026-04-11 22:51 | 58.09958 | -68.41978 | 122 ft | 5 kts | 223° |
| 2026-04-11 22:51 | 58.09898 | -68.42028 | 122 ft | 14 kts | 164° |
| 2026-04-11 22:52 | 58.09812 | -68.41886 | 126 ft | 18 kts | 131° |
| 2026-04-11 22:52 | 58.09729 | -68.41713 | 139 ft | 18 kts | 152° |
| 2026-04-11 22:52 | 58.09593 | -68.41845 | 140 ft | 50 kts | 221° |
| 2026-04-11 22:52 | 58.09077 | -68.42729 | 142 ft | 148 kts | 223° |
| 2026-04-11 22:53 | 58.08192 | -68.44300 | 559 ft | 195 kts | 224° |
| 2026-04-11 22:53 | 58.07145 | -68.46238 | 1333 ft | 225 kts | 226° |
| 2026-04-11 22:53 | 58.05808 | -68.47865 | 2450 ft | 236 kts | 201° |
| 2026-04-11 22:53 | 58.04201 | -68.48967 | 3384 ft | 251 kts | 202° |
| 2026-04-11 22:54 | 58.02560 | -68.50118 | 4504 ft | 251 kts | 202° |
| 2026-04-11 22:54 | 58.00921 | -68.51270 | 5465 ft | 252 kts | 202° |
| 2026-04-11 22:54 | 57.99287 | -68.52416 | 6440 ft | 251 kts | 202° |
| 2026-04-11 22:54 | 57.97642 | -68.53572 | 7333 ft | 253 kts | 201° |
| 2026-04-11 22:55 | 57.94274 | -68.55932 | 8925 ft | 262 kts | 202° |
| 2026-04-11 22:55 | 57.92553 | -68.57142 | 9750 ft | 266 kts | 202° |
| 2026-04-11 22:55 | 57.90811 | -68.58363 | 10478 ft | 273 kts | 202° |
| 2026-04-11 22:56 | 57.88946 | -68.59673 | 10711 ft | 299 kts | 202° |
| 2026-04-11 22:56 | 57.86929 | -68.61087 | 11062 ft | 317 kts | 202° |
| 2026-04-11 22:56 | 57.84832 | -68.62550 | 11777 ft | 322 kts | 202° |
| 2026-04-11 22:56 | 57.82731 | -68.64010 | 12609 ft | 323 kts | 202° |
| 2026-04-11 22:57 | 57.80632 | -68.65543 | 13365 ft | 324 kts | 206° |
| 2026-04-11 22:57 | 57.78593 | -68.67298 | 14069 ft | 328 kts | 208° |
| 2026-04-11 22:57 | 57.76533 | -68.69180 | 14803 ft | 330 kts | 208° |
| 2026-04-11 22:57 | 57.74465 | -68.71096 | 15545 ft | 333 kts | 208° |
| 2026-04-11 22:58 | 57.72373 | -68.73035 | 16279 ft | 337 kts | 209° |
| 2026-04-11 22:58 | 57.70263 | -68.74968 | 17015 ft | 338 kts | 208° |
| 2026-04-11 22:58 | 57.68136 | -68.76898 | 17647 ft | 342 kts | 208° |
| 2026-04-11 22:58 | 57.65979 | -68.78843 | 18310 ft | 345 kts | 208° |
| 2026-04-11 22:59 | 57.63807 | -68.80794 | 18934 ft | 348 kts | 208° |
| 2026-04-11 22:59 | 57.61622 | -68.82751 | 19546 ft | 351 kts | 208° |
| 2026-04-11 22:59 | 57.59408 | -68.84728 | 20120 ft | 354 kts | 208° |
| 2026-04-11 22:59 | 57.57174 | -68.86718 | 20721 ft | 356 kts | 208° |
| 2026-04-11 23:00 | 57.54928 | -68.88715 | 21293 ft | 359 kts | 208° |
| 2026-04-11 23:00 | 57.52661 | -68.90728 | 21826 ft | 362 kts | 208° |
| 2026-04-11 23:00 | 57.50380 | -68.92752 | 22363 ft | 365 kts | 208° |
| 2026-04-11 23:00 | 57.48086 | -68.94785 | 22870 ft | 367 kts | 208° |
| 2026-04-11 23:01 | 57.45766 | -68.96838 | 23344 ft | 371 kts | 208° |
| 2026-04-11 23:01 | 57.43431 | -68.98901 | 23821 ft | 373 kts | 208° |
| 2026-04-11 23:01 | 57.41098 | -69.00960 | 24288 ft | 376 kts | 208° |
| 2026-04-11 23:01 | 57.38701 | -69.03071 | 24739 ft | 379 kts | 208° |
| 2026-04-11 23:02 | 57.36311 | -69.05174 | 25171 ft | 381 kts | 208° |
| 2026-04-11 23:02 | 57.33908 | -69.07284 | 25619 ft | 384 kts | 207° |
| 2026-04-11 23:02 | 57.31483 | -69.09393 | 26088 ft | 386 kts | 208° |
| 2026-04-11 23:02 | 57.29075 | -69.11490 | 26485 ft | 388 kts | 208° |
| 2026-04-11 23:03 | 57.26629 | -69.13641 | 26837 ft | 390 kts | 208° |
| 2026-04-11 23:03 | 57.24155 | -69.15808 | 27146 ft | 394 kts | 208° |
| 2026-04-11 23:03 | 57.21674 | -69.17976 | 27521 ft | 396 kts | 208° |
| 2026-04-11 23:03 | 57.19182 | -69.20148 | 27905 ft | 397 kts | 208° |
| 2026-04-11 23:04 | 57.16674 | -69.22330 | 28225 ft | 400 kts | 207° |
| 2026-04-11 23:04 | 57.14145 | -69.24525 | 28512 ft | 403 kts | 207° |
| 2026-04-11 23:04 | 57.11602 | -69.26730 | 28869 ft | 405 kts | 207° |
| 2026-04-11 23:04 | 57.09047 | -69.28940 | 29223 ft | 406 kts | 207° |
| 2026-04-11 23:05 | 57.06487 | -69.31152 | 29506 ft | 408 kts | 207° |
| 2026-04-11 23:05 | 57.03936 | -69.33352 | 29771 ft | 411 kts | 207° |
| 2026-04-11 23:05 | 57.01313 | -69.35611 | 30045 ft | 413 kts | 207° |
| 2026-04-11 23:05 | 56.98736 | -69.37828 | 30312 ft | 414 kts | 207° |
| 2026-04-11 23:06 | 56.96119 | -69.40075 | 30563 ft | 416 kts | 207° |
| 2026-04-11 23:06 | 56.93487 | -69.42331 | 30856 ft | 417 kts | 207° |
| 2026-04-11 23:06 | 56.90867 | -69.44573 | 31198 ft | 416 kts | 207° |
| 2026-04-11 23:06 | 56.88240 | -69.46816 | 31531 ft | 416 kts | 207° |
| 2026-04-11 23:07 | 56.85618 | -69.49052 | 31869 ft | 415 kts | 207° |
| 2026-04-11 23:07 | 56.83001 | -69.51282 | 32138 ft | 416 kts | 207° |
| 2026-04-11 23:07 | 56.80372 | -69.53518 | 32385 ft | 417 kts | 207° |
| 2026-04-11 23:07 | 56.77742 | -69.55752 | 32682 ft | 417 kts | 207° |
| 2026-04-11 23:08 | 56.75112 | -69.57982 | 32991 ft | 417 kts | 207° |
| 2026-04-11 23:08 | 56.72477 | -69.60214 | 33262 ft | 417 kts | 207° |
| 2026-04-11 23:08 | 56.69839 | -69.62442 | 33508 ft | 418 kts | 207° |
| 2026-04-11 23:08 | 56.67202 | -69.64669 | 33757 ft | 418 kts | 207° |
| 2026-04-11 23:09 | 56.64567 | -69.66890 | 34033 ft | 418 kts | 207° |
| 2026-04-11 23:09 | 56.61936 | -69.69105 | 34311 ft | 418 kts | 207° |
| 2026-04-11 23:09 | 56.59282 | -69.71335 | 34545 ft | 419 kts | 207° |
| 2026-04-11 23:09 | 56.56633 | -69.73557 | 34779 ft | 419 kts | 207° |
| 2026-04-11 23:10 | 56.53951 | -69.75804 | 35044 ft | 419 kts | 207° |
| 2026-04-11 23:10 | 56.51346 | -69.77982 | 35281 ft | 419 kts | 207° |
| 2026-04-11 23:10 | 56.48723 | -69.80172 | 35474 ft | 420 kts | 207° |
| 2026-04-11 23:10 | 56.46028 | -69.82417 | 35691 ft | 420 kts | 207° |
| 2026-04-11 23:11 | 56.43378 | -69.84623 | 35933 ft | 420 kts | 207° |
| 2026-04-11 23:11 | 56.40719 | -69.86833 | 36130 ft | 421 kts | 207° |
| 2026-04-11 23:11 | 56.38048 | -69.89050 | 36292 ft | 422 kts | 207° |
| 2026-04-11 23:11 | 56.35376 | -69.91265 | 36487 ft | 423 kts | 207° |
| 2026-04-11 23:12 | 56.32695 | -69.93483 | 36700 ft | 423 kts | 207° |
| 2026-04-11 23:12 | 56.30024 | -69.95690 | 36950 ft | 421 kts | 207° |
| 2026-04-11 23:12 | 56.27373 | -69.97874 | 37296 ft | 418 kts | 207° |
| 2026-04-11 23:12 | 56.24766 | -70.00020 | 37571 ft | 416 kts | 207° |
| 2026-04-11 23:13 | 56.22134 | -70.02184 | 37703 ft | 417 kts | 207° |
| 2026-04-11 23:13 | 56.16833 | -70.06535 | 37967 ft | 419 kts | 207° |
| 2026-04-11 23:13 | 56.14171 | -70.08713 | 38162 ft | 419 kts | 207° |
| 2026-04-11 23:14 | 56.11517 | -70.10883 | 38157 ft | 422 kts | 207° |
| 2026-04-11 23:14 | 56.06161 | -70.15252 | 38169 ft | 421 kts | 207° |
| 2026-04-11 23:15 | 56.01739 | -70.18844 | 38170 ft | 419 kts | 207° |
| 2026-04-11 23:15 | 55.96449 | -70.23131 | 38172 ft | 416 kts | 207° |
| 2026-04-11 23:16 | 55.91191 | -70.27382 | 38173 ft | 414 kts | 207° |
| 2026-04-11 23:16 | 55.85945 | -70.31605 | 38177 ft | 413 kts | 207° |
| 2026-04-11 23:17 | 55.80702 | -70.35822 | 38177 ft | 414 kts | 207° |
| 2026-04-11 23:17 | 55.75438 | -70.40040 | 38182 ft | 416 kts | 207° |
| 2026-04-11 23:18 | 55.70149 | -70.44267 | 38182 ft | 418 kts | 207° |
| 2026-04-11 23:18 | 55.64835 | -70.48499 | 38176 ft | 420 kts | 207° |
| 2026-04-11 23:19 | 55.59497 | -70.52739 | 38179 ft | 421 kts | 207° |
| 2026-04-11 23:19 | 55.54135 | -70.56984 | 38185 ft | 423 kts | 207° |
| 2026-04-11 23:20 | 55.48748 | -70.61234 | 38187 ft | 425 kts | 207° |
| 2026-04-11 23:20 | 55.43378 | -70.65461 | 38182 ft | 426 kts | 207° |
| 2026-04-11 23:21 | 55.37968 | -70.69705 | 38187 ft | 426 kts | 207° |
| 2026-04-11 23:21 | 55.32543 | -70.73948 | 38183 ft | 426 kts | 207° |
| 2026-04-11 23:22 | 55.27134 | -70.78167 | 38181 ft | 425 kts | 207° |
| 2026-04-11 23:22 | 55.21723 | -70.82374 | 38182 ft | 424 kts | 207° |
| 2026-04-11 23:23 | 55.16336 | -70.86549 | 38184 ft | 423 kts | 207° |
| 2026-04-11 23:23 | 55.10952 | -70.90711 | 38182 ft | 422 kts | 207° |
| 2026-04-11 23:24 | 55.05583 | -70.94848 | 38185 ft | 421 kts | 207° |
| 2026-04-11 23:24 | 55.00255 | -70.98939 | 38187 ft | 421 kts | 207° |
| 2026-04-11 23:25 | 54.94894 | -71.03048 | 38181 ft | 421 kts | 207° |
| 2026-04-11 23:25 | 54.89531 | -71.07146 | 38182 ft | 421 kts | 207° |
| 2026-04-11 23:26 | 54.84163 | -71.11237 | 38188 ft | 421 kts | 207° |
| 2026-04-11 23:26 | 54.78794 | -71.15313 | 38193 ft | 421 kts | 207° |
| 2026-04-11 23:27 | 54.73417 | -71.19384 | 38194 ft | 422 kts | 207° |
| 2026-04-11 23:27 | 54.68060 | -71.23429 | 38195 ft | 423 kts | 207° |
| 2026-04-11 23:28 | 54.62664 | -71.27491 | 38194 ft | 424 kts | 207° |
| 2026-04-11 23:28 | 54.57240 | -71.31562 | 38197 ft | 425 kts | 207° |
| 2026-04-11 23:29 | 54.51808 | -71.35628 | 38193 ft | 426 kts | 207° |
| 2026-04-11 23:29 | 54.46356 | -71.39697 | 38193 ft | 427 kts | 207° |
| 2026-04-11 23:30 | 54.40895 | -71.43760 | 38195 ft | 428 kts | 207° |
| 2026-04-11 23:30 | 54.35423 | -71.47821 | 38193 ft | 429 kts | 207° |
| 2026-04-11 23:31 | 54.29937 | -71.51880 | 38194 ft | 429 kts | 207° |
| 2026-04-11 23:31 | 54.24480 | -71.55904 | 38193 ft | 429 kts | 207° |
| 2026-04-11 23:32 | 54.18956 | -71.59967 | 38192 ft | 430 kts | 207° |
| 2026-04-11 23:32 | 54.13491 | -71.63976 | 38195 ft | 430 kts | 207° |
| 2026-04-11 23:33 | 54.07996 | -71.67994 | 38190 ft | 430 kts | 207° |
| 2026-04-11 23:33 | 54.02503 | -71.71999 | 38194 ft | 430 kts | 207° |
| 2026-04-11 23:34 | 53.96996 | -71.76001 | 38186 ft | 430 kts | 207° |
| 2026-04-11 23:34 | 53.91495 | -71.79989 | 38185 ft | 430 kts | 207° |
| 2026-04-11 23:35 | 53.85995 | -71.83966 | 38183 ft | 430 kts | 207° |
| 2026-04-11 23:35 | 53.80482 | -71.87939 | 38183 ft | 430 kts | 207° |
| 2026-04-11 23:36 | 53.74976 | -71.91897 | 38185 ft | 430 kts | 207° |
| 2026-04-11 23:36 | 53.69460 | -71.95850 | 38183 ft | 430 kts | 207° |
| 2026-04-11 23:37 | 53.63991 | -71.99757 | 38184 ft | 430 kts | 207° |
| 2026-04-11 23:37 | 53.58486 | -72.03681 | 38184 ft | 430 kts | 207° |
| 2026-04-11 23:38 | 53.52970 | -72.07601 | 38181 ft | 430 kts | 207° |
| 2026-04-11 23:38 | 53.47461 | -72.11505 | 38186 ft | 430 kts | 207° |
| 2026-04-11 23:39 | 53.41946 | -72.15402 | 38192 ft | 430 kts | 207° |
| 2026-04-11 23:39 | 53.36444 | -72.19279 | 38194 ft | 430 kts | 207° |
| 2026-04-11 23:40 | 53.30931 | -72.23154 | 38194 ft | 430 kts | 207° |
| 2026-04-11 23:40 | 53.25407 | -72.27025 | 38196 ft | 431 kts | 207° |
| 2026-04-11 23:41 | 53.19911 | -72.30864 | 38195 ft | 431 kts | 207° |
| 2026-04-11 23:41 | 53.14327 | -72.34755 | 38206 ft | 431 kts | 207° |
| 2026-04-11 23:42 | 53.08822 | -72.38577 | 38204 ft | 432 kts | 207° |
| 2026-04-11 23:42 | 53.03266 | -72.42429 | 38201 ft | 433 kts | 207° |
| 2026-04-11 23:43 | 52.94907 | -72.48201 | 38202 ft | 434 kts | 207° |
| 2026-04-11 23:44 | 52.86541 | -72.53952 | 38202 ft | 435 kts | 207° |
| 2026-04-11 23:44 | 52.80946 | -72.57786 | 38206 ft | 435 kts | 207° |
| 2026-04-11 23:45 | 52.75351 | -72.61608 | 38198 ft | 434 kts | 207° |
| 2026-04-11 23:45 | 52.69778 | -72.65402 | 38202 ft | 433 kts | 207° |
| 2026-04-11 23:46 | 52.64194 | -72.69196 | 38205 ft | 433 kts | 207° |
| 2026-04-11 23:46 | 52.58626 | -72.72970 | 38203 ft | 432 kts | 207° |
| 2026-04-11 23:47 | 52.53054 | -72.76736 | 38204 ft | 433 kts | 207° |
| 2026-04-11 23:47 | 52.47489 | -72.80486 | 38206 ft | 433 kts | 207° |
| 2026-04-11 23:48 | 52.41948 | -72.84208 | 38211 ft | 433 kts | 207° |
| 2026-04-11 23:48 | 52.36363 | -72.87952 | 38210 ft | 434 kts | 207° |
| 2026-04-11 23:49 | 52.30775 | -72.91687 | 38209 ft | 434 kts | 207° |
| 2026-04-11 23:49 | 52.25169 | -72.95424 | 38209 ft | 435 kts | 207° |
| 2026-04-11 23:50 | 52.19563 | -72.99151 | 38211 ft | 436 kts | 207° |
| 2026-04-11 23:50 | 52.13939 | -73.02879 | 38226 ft | 436 kts | 207° |
| 2026-04-11 23:51 | 52.08313 | -73.06597 | 38224 ft | 437 kts | 207° |
| 2026-04-11 23:51 | 52.02669 | -73.10319 | 38218 ft | 438 kts | 207° |
| 2026-04-11 23:52 | 51.97048 | -73.14014 | 38223 ft | 439 kts | 207° |
| 2026-04-11 23:52 | 51.91383 | -73.17729 | 38220 ft | 440 kts | 207° |
| 2026-04-11 23:53 | 51.85700 | -73.21446 | 38234 ft | 440 kts | 207° |
| 2026-04-11 23:53 | 51.80014 | -73.25155 | 38230 ft | 441 kts | 207° |
| 2026-04-11 23:54 | 51.75434 | -73.28131 | 38234 ft | 441 kts | 207° |